Manawanui Hmnzs — ZMLR — position and weather

sailwx.info

Track history (hours):
 
Tides and Currents Weather Stations Pressure Air Temp Water Temp Dewpoint Dewpoint Depression Visibility Wind Speed Wind Dir Waves Ship Positions

Manawanui Hmnzs

Last reported at 2017-Apr-29 05:17 UTC. Time now 2017-May-23 14:48 UTC.
Position S 36°50' E 174°47'.
Warning: this ship's position is 24 days out of date.

MMSI: 512000300.

Date/timePositionNaut miles runAvg speedWind from/ knotsBaromVisibWave heightAir tempDewpointWater temp
2017-Apr-29 05:17S 36°50' E 174°47'0 0.2
2017-Apr-29 04:59S 36°50' E 174°47'1 1.8
2017-Apr-29 04:30S 36°50' E 174°48'2 4.9
2017-Apr-29 04:00S 36°48' E 174°49'3 5.8
2017-Apr-29 03:30S 36°45' E 174°50'81 4.4
2017-Apr-28 09:08S 37°34' E 176°11'1 6.6
2017-Apr-28 09:00S 37°34' E 176°11'3 6.0
2017-Apr-28 08:30S 37°37' E 176°10'1 2.9
2017-Apr-28 08:00S 37°39' E 176°11'0 0.0
2017-Apr-28 07:30S 37°39' E 176°11'5 0.4
2017-Apr-27 20:41S 37°34' E 176°11'81 2.0
2017-Apr-26 04:15S 36°47' E 174°48'2 8.3
2017-Apr-26 03:59S 36°49' E 174°50'2 2.3
2017-Apr-26 03:00S 36°50' E 174°48'4 6.9
2017-Apr-26 02:29S 36°47' E 174°48'510.4
2017-Apr-26 02:00S 36°43' E 174°53'  
2017-Apr-22 23:37S 36°36' E 175°02'2 6.8
2017-Apr-22 23:23S 36°37' E 175°01'3 7.3
2017-Apr-22 22:57S 36°40' E 174°58'4 8.0
2017-Apr-22 22:29S 36°41' E 174°54'5 8.3
2017-Apr-22 21:52S 36°45' E 174°50'3 8.7
2017-Apr-22 21:30S 36°48' E 174°50'  
2017-Apr-19 23:58S 36°50' E 174°47'2 4.7
2017-Apr-19 23:28S 36°49' E 174°50'4 8.6
2017-Apr-19 23:00S 36°45' E 174°50'  
Track history (hours):
 
Tides and Currents Weather Stations Pressure Air Temp Water Temp Dewpoint Dewpoint Depression Visibility Wind Speed Wind Dir Waves Ship Positions

Manawanui Hmnzs

Last reported at 2017-Apr-29 05:17 UTC. Time now 2017-May-23 14:48 UTC.
Position S 36°50' E 174°47'.
Warning: this ship's position is 24 days out of date.

MMSI: 512000300.

Date/timePositionNaut miles runAvg speedWind from/ knotsBaromVisibWave heightAir tempDewpointWater temp
2017-Apr-29 05:17S 36°50' E 174°47'0 0.2
2017-Apr-29 04:59S 36°50' E 174°47'1 1.8
2017-Apr-29 04:30S 36°50' E 174°48'2 4.9
2017-Apr-29 04:00S 36°48' E 174°49'3 5.8
2017-Apr-29 03:30S 36°45' E 174°50'81 4.4
2017-Apr-28 09:08S 37°34' E 176°11'1 6.6
2017-Apr-28 09:00S 37°34' E 176°11'3 6.0
2017-Apr-28 08:30S 37°37' E 176°10'1 2.9
2017-Apr-28 08:00S 37°39' E 176°11'0 0.0
2017-Apr-28 07:30S 37°39' E 176°11'5 0.4
2017-Apr-27 20:41S 37°34' E 176°11'81 2.0
2017-Apr-26 04:15S 36°47' E 174°48'2 8.3
2017-Apr-26 03:59S 36°49' E 174°50'2 2.3
2017-Apr-26 03:00S 36°50' E 174°48'4 6.9
2017-Apr-26 02:29S 36°47' E 174°48'510.4
2017-Apr-26 02:00S 36°43' E 174°53'  
2017-Apr-22 23:37S 36°36' E 175°02'2 6.8
2017-Apr-22 23:23S 36°37' E 175°01'3 7.3
2017-Apr-22 22:57S 36°40' E 174°58'4 8.0
2017-Apr-22 22:29S 36°41' E 174°54'5 8.3
2017-Apr-22 21:52S 36°45' E 174°50'3 8.7
2017-Apr-22 21:30S 36°48' E 174°50'  
2017-Apr-19 23:58S 36°50' E 174°47'2 4.7
2017-Apr-19 23:28S 36°49' E 174°50'4 8.6
2017-Apr-19 23:00S 36°45' E 174°50'  

Dump ship's entire track history